sensor_id;sensor_type;location;lat;lon;timestamp;P1;durP1;ratioP1;P2;durP2;ratioP2
52396;SDS011;38322;53.108;6.308;2023-05-10T05:03:49;0.90;;;0.70;;
52396;SDS011;38322;53.108;6.308;2023-05-10T05:06:14;1.38;;;1.02;;
52396;SDS011;38322;53.108;6.308;2023-05-10T05:08:40;2.05;;;1.30;;
52396;SDS011;38322;53.108;6.308;2023-05-10T05:11:06;1.42;;;0.82;;
52396;SDS011;38322;53.108;6.308;2023-05-10T05:13:31;1.33;;;0.93;;
52396;SDS011;38322;53.108;6.308;2023-05-10T05:15:59;1.45;;;1.17;;
52396;SDS011;38322;53.108;6.308;2023-05-10T05:18:27;1.35;;;1.10;;
52396;SDS011;38322;53.108;6.308;2023-05-10T05:20:53;2.13;;;1.38;;
52396;SDS011;38322;53.108;6.308;2023-05-10T05:23:19;1.63;;;1.33;;
52396;SDS011;38322;53.108;6.308;2023-05-10T05:25:46;1.20;;;0.90;;
52396;SDS011;38322;53.108;6.308;2023-05-10T05:28:11;1.20;;;0.98;;
52396;SDS011;38322;53.108;6.308;2023-05-10T05:30:37;1.50;;;0.68;;
52396;SDS011;38322;53.108;6.308;2023-05-10T05:33:03;1.05;;;0.60;;
52396;SDS011;38322;53.108;6.308;2023-05-10T05:35:29;0.88;;;0.52;;
52396;SDS011;38322;53.108;6.308;2023-05-10T05:37:54;0.82;;;0.40;;
52396;SDS011;38322;53.108;6.308;2023-05-10T05:40:20;0.55;;;0.22;;
52396;SDS011;38322;53.108;6.308;2023-05-10T05:42:46;1.08;;;0.20;;
52396;SDS011;38322;53.108;6.308;2023-05-10T05:45:12;1.17;;;0.20;;
52396;SDS011;38322;53.108;6.308;2023-05-10T05:47:38;2.95;;;0.17;;
52396;SDS011;38322;53.108;6.308;2023-05-10T05:50:05;0.35;;;0.22;;
52396;SDS011;38322;53.108;6.308;2023-05-10T05:52:31;1.45;;;0.10;;
52396;SDS011;38322;53.108;6.308;2023-05-10T05:54:57;0.30;;;0.20;;
52396;SDS011;38322;53.108;6.308;2023-05-10T05:57:22;0.20;;;0.10;;
52396;SDS011;38322;53.108;6.308;2023-05-10T05:59:48;0.13;;;0.10;;
52396;SDS011;38322;53.108;6.308;2023-05-10T06:02:14;1.83;;;0.17;;
52396;SDS011;38322;53.108;6.308;2023-05-10T06:04:40;0.35;;;0.10;;
52396;SDS011;38322;53.108;6.308;2023-05-10T06:07:05;0.25;;;0.10;;
52396;SDS011;38322;53.108;6.308;2023-05-10T06:09:31;1.35;;;0.38;;
52396;SDS011;38322;53.108;6.308;2023-05-10T06:11:57;1.42;;;0.13;;
52396;SDS011;38322;53.108;6.308;2023-05-10T06:14:22;0.20;;;0.20;;
52396;SDS011;38322;53.108;6.308;2023-05-10T06:16:48;0.10;;;0.10;;
52396;SDS011;38322;53.108;6.308;2023-05-10T06:19:15;0.73;;;0.15;;
52396;SDS011;38322;53.108;6.308;2023-05-10T06:21:40;1.83;;;0.20;;
52396;SDS011;38322;53.108;6.308;2023-05-10T06:24:06;1.38;;;0.20;;
52396;SDS011;38322;53.108;6.308;2023-05-10T06:26:32;0.40;;;0.20;;
52396;SDS011;38322;53.108;6.308;2023-05-10T06:28:58;0.20;;;0.10;;
52396;SDS011;38322;53.108;6.308;2023-05-10T06:31:24;0.30;;;0.20;;
52396;SDS011;38322;53.108;6.308;2023-05-10T06:33:49;0.43;;;0.13;;
52396;SDS011;38322;53.108;6.308;2023-05-10T06:36:15;0.70;;;0.10;;
52396;SDS011;38322;53.108;6.308;2023-05-10T06:38:41;1.65;;;0.10;;
52396;SDS011;38322;53.108;6.308;2023-05-10T06:41:07;0.40;;;0.20;;
52396;SDS011;38322;53.108;6.308;2023-05-10T06:43:33;0.10;;;0.10;;
52396;SDS011;38322;53.108;6.308;2023-05-10T06:45:58;0.60;;;0.20;;
52396;SDS011;38322;53.108;6.308;2023-05-10T06:48:24;2.35;;;0.38;;
52396;SDS011;38322;53.108;6.308;2023-05-10T06:50:50;1.10;;;0.90;;
52396;SDS011;38322;53.108;6.308;2023-05-10T06:53:16;0.77;;;0.60;;
52396;SDS011;38322;53.108;6.308;2023-05-10T06:55:41;1.52;;;0.75;;
52396;SDS011;38322;53.108;6.308;2023-05-10T06:58:08;0.60;;;0.50;;
52396;SDS011;38322;53.108;6.308;2023-05-10T07:00:33;0.80;;;0.70;;
52396;SDS011;38322;53.108;6.308;2023-05-10T07:02:59;0.77;;;0.50;;
52396;SDS011;38322;53.108;6.308;2023-05-10T07:05:25;1.58;;;1.48;;
52396;SDS011;38322;53.108;6.308;2023-05-10T07:07:52;3.10;;;2.05;;
52396;SDS011;38322;53.108;6.308;2023-05-10T07:10:18;2.47;;;2.28;;
52396;SDS011;38322;53.108;6.308;2023-05-10T07:12:44;3.00;;;2.70;;
52396;SDS011;38322;53.108;6.308;2023-05-10T07:15:10;2.42;;;2.22;;
52396;SDS011;38322;53.108;6.308;2023-05-10T07:17:35;3.17;;;2.67;;
52396;SDS011;38322;53.108;6.308;2023-05-10T07:20:01;2.40;;;2.20;;
52396;SDS011;38322;53.108;6.308;2023-05-10T07:22:28;2.92;;;2.50;;
52396;SDS011;38322;53.108;6.308;2023-05-10T07:24:54;2.80;;;2.40;;
52396;SDS011;38322;53.108;6.308;2023-05-10T07:27:20;2.47;;;1.83;;
52396;SDS011;38322;53.108;6.308;2023-05-10T07:29:45;2.22;;;1.23;;
52396;SDS011;38322;53.108;6.308;2023-05-10T07:32:11;2.05;;;1.55;;
52396;SDS011;38322;53.108;6.308;2023-05-10T07:34:37;3.92;;;2.13;;
52396;SDS011;38322;53.108;6.308;2023-05-10T07:37:03;1.42;;;1.15;;
52396;SDS011;38322;53.108;6.308;2023-05-10T07:39:29;1.75;;;1.65;;
52396;SDS011;38322;53.108;6.308;2023-05-10T07:41:55;1.63;;;1.52;;
52396;SDS011;38322;53.108;6.308;2023-05-10T07:44:21;3.45;;;2.20;;
52396;SDS011;38322;53.108;6.308;2023-05-10T07:46:48;2.65;;;1.48;;
52396;SDS011;38322;53.108;6.308;2023-05-10T07:49:14;3.80;;;2.63;;
52396;SDS011;38322;53.108;6.308;2023-05-10T07:51:41;2.33;;;2.13;;
52396;SDS011;38322;53.108;6.308;2023-05-10T07:54:07;2.45;;;1.98;;
52396;SDS011;38322;53.108;6.308;2023-05-10T07:56:33;2.67;;;1.73;;
52396;SDS011;38322;53.108;6.308;2023-05-10T07:58:59;2.78;;;1.52;;
52396;SDS011;38322;53.108;6.308;2023-05-10T08:01:25;2.58;;;1.33;;
52396;SDS011;38322;53.108;6.308;2023-05-10T08:03:54;2.03;;;1.55;;
52396;SDS011;38322;53.108;6.308;2023-05-10T08:06:20;3.97;;;1.60;;
52396;SDS011;38322;53.108;6.308;2023-05-10T08:08:46;3.38;;;2.17;;
52396;SDS011;38322;53.108;6.308;2023-05-10T08:11:16;3.20;;;2.10;;
52396;SDS011;38322;53.108;6.308;2023-05-10T08:13:42;3.10;;;1.33;;
52396;SDS011;38322;53.108;6.308;2023-05-10T08:16:09;2.97;;;2.78;;
52396;SDS011;38322;53.108;6.308;2023-05-10T08:18:35;3.75;;;2.58;;
52396;SDS011;38322;53.108;6.308;2023-05-10T08:21:00;3.35;;;2.22;;
52396;SDS011;38322;53.108;6.308;2023-05-10T08:23:26;2.80;;;2.50;;
52396;SDS011;38322;53.108;6.308;2023-05-10T08:25:52;4.97;;;2.75;;
52396;SDS011;38322;53.108;6.308;2023-05-10T08:28:18;2.95;;;2.20;;
52396;SDS011;38322;53.108;6.308;2023-05-10T08:30:43;2.97;;;1.88;;
52396;SDS011;38322;53.108;6.308;2023-05-10T08:33:09;5.40;;;2.25;;
52396;SDS011;38322;53.108;6.308;2023-05-10T08:35:35;4.22;;;2.80;;
52396;SDS011;38322;53.108;6.308;2023-05-10T08:38:01;4.40;;;2.30;;
52396;SDS011;38322;53.108;6.308;2023-05-10T08:40:26;4.00;;;2.88;;
52396;SDS011;38322;53.108;6.308;2023-05-10T08:42:55;4.45;;;2.28;;
52396;SDS011;38322;53.108;6.308;2023-05-10T08:45:27;3.08;;;2.28;;
52396;SDS011;38322;53.108;6.308;2023-05-10T08:47:57;3.53;;;2.58;;
52396;SDS011;38322;53.108;6.308;2023-05-10T08:50:26;4.97;;;2.78;;
52396;SDS011;38322;53.108;6.308;2023-05-10T08:52:52;5.70;;;2.38;;
52396;SDS011;38322;53.108;6.308;2023-05-10T08:55:22;3.35;;;2.80;;
52396;SDS011;38322;53.108;6.308;2023-05-10T08:57:49;3.03;;;2.50;;
52396;SDS011;38322;53.108;6.308;2023-05-10T09:00:15;6.28;;;3.00;;
52396;SDS011;38322;53.108;6.308;2023-05-10T09:02:43;3.15;;;2.13;;
52396;SDS011;38322;53.108;6.308;2023-05-10T09:05:10;6.20;;;2.15;;
52396;SDS011;38322;53.108;6.308;2023-05-10T09:07:37;4.00;;;3.22;;
52396;SDS011;38322;53.108;6.308;2023-05-10T09:10:03;5.43;;;2.33;;
52396;SDS011;38322;53.108;6.308;2023-05-10T09:12:29;3.80;;;2.17;;
52396;SDS011;38322;53.108;6.308;2023-05-10T09:14:55;3.85;;;2.95;;
52396;SDS011;38322;53.108;6.308;2023-05-10T09:17:24;4.82;;;1.50;;
52396;SDS011;38322;53.108;6.308;2023-05-10T09:20:01;3.40;;;2.60;;
52396;SDS011;38322;53.108;6.308;2023-05-10T09:22:30;5.28;;;3.45;;
52396;SDS011;38322;53.108;6.308;2023-05-10T09:25:03;3.90;;;3.05;;
52396;SDS011;38322;53.108;6.308;2023-05-10T09:27:30;4.80;;;2.90;;
52396;SDS011;38322;53.108;6.308;2023-05-10T09:29:56;5.43;;;3.13;;
52396;SDS011;38322;53.108;6.308;2023-05-10T09:32:27;4.32;;;3.17;;
52396;SDS011;38322;53.108;6.308;2023-05-10T09:35:09;3.97;;;2.70;;
52396;SDS011;38322;53.108;6.308;2023-05-10T09:37:36;5.55;;;3.38;;
52396;SDS011;38322;53.108;6.308;2023-05-10T09:40:06;6.93;;;3.70;;
52396;SDS011;38322;53.108;6.308;2023-05-10T09:42:33;8.48;;;4.10;;
52396;SDS011;38322;53.108;6.308;2023-05-10T09:45:01;4.93;;;3.97;;
52396;SDS011;38322;53.108;6.308;2023-05-10T09:47:29;8.52;;;5.18;;
52396;SDS011;38322;53.108;6.308;2023-05-10T09:49:58;5.68;;;4.15;;
52396;SDS011;38322;53.108;6.308;2023-05-10T09:52:28;5.85;;;4.60;;
52396;SDS011;38322;53.108;6.308;2023-05-10T09:54:56;5.15;;;4.18;;
52396;SDS011;38322;53.108;6.308;2023-05-10T09:57:22;7.43;;;5.30;;
52396;SDS011;38322;53.108;6.308;2023-05-10T09:59:49;7.10;;;4.70;;
52396;SDS011;38322;53.108;6.308;2023-05-10T10:02:16;6.22;;;5.13;;
52396;SDS011;38322;53.108;6.308;2023-05-10T10:04:42;5.55;;;4.80;;
52396;SDS011;38322;53.108;6.308;2023-05-10T10:07:08;6.80;;;4.65;;
52396;SDS011;38322;53.108;6.308;2023-05-10T10:09:34;6.47;;;3.83;;
52396;SDS011;38322;53.108;6.308;2023-05-10T10:12:01;5.15;;;4.40;;
52396;SDS011;38322;53.108;6.308;2023-05-10T10:14:28;5.25;;;3.80;;
52396;SDS011;38322;53.108;6.308;2023-05-10T10:16:54;5.65;;;4.43;;
52396;SDS011;38322;53.108;6.308;2023-05-10T10:19:20;4.95;;;3.85;;
52396;SDS011;38322;53.108;6.308;2023-05-10T10:21:49;4.60;;;4.07;;
52396;SDS011;38322;53.108;6.308;2023-05-10T10:24:15;6.72;;;3.88;;
52396;SDS011;38322;53.108;6.308;2023-05-10T10:26:41;4.20;;;3.63;;
52396;SDS011;38322;53.108;6.308;2023-05-10T10:31:59;5.70;;;4.55;;
52396;SDS011;38322;53.108;6.308;2023-05-10T10:34:29;6.25;;;5.15;;
52396;SDS011;38322;53.108;6.308;2023-05-10T10:36:56;7.50;;;5.18;;
52396;SDS011;38322;53.108;6.308;2023-05-10T10:39:23;6.22;;;3.80;;
52396;SDS011;38322;53.108;6.308;2023-05-10T10:41:55;6.68;;;4.90;;
52396;SDS011;38322;53.108;6.308;2023-05-10T10:47:01;5.78;;;4.80;;
52396;SDS011;38322;53.108;6.308;2023-05-10T10:54:51;8.48;;;5.53;;
52396;SDS011;38322;53.108;6.308;2023-05-10T10:57:34;7.45;;;5.82;;
52396;SDS011;38322;53.108;6.308;2023-05-10T11:02:43;8.18;;;5.68;;
52396;SDS011;38322;53.108;6.308;2023-05-10T11:07:55;8.50;;;5.90;;
52396;SDS011;38322;53.108;6.308;2023-05-10T11:10:22;8.95;;;7.15;;
52396;SDS011;38322;53.108;6.308;2023-05-10T11:12:51;8.70;;;6.20;;
52396;SDS011;38322;53.108;6.308;2023-05-10T11:15:19;7.55;;;6.03;;
52396;SDS011;38322;53.108;6.308;2023-05-10T11:17:47;11.15;;;7.43;;
52396;SDS011;38322;53.108;6.308;2023-05-10T11:20:17;8.73;;;6.67;;
52396;SDS011;38322;53.108;6.308;2023-05-10T11:22:49;8.90;;;5.95;;
52396;SDS011;38322;53.108;6.308;2023-05-10T11:25:16;9.18;;;6.15;;
52396;SDS011;38322;53.108;6.308;2023-05-10T11:27:42;11.40;;;7.40;;
52396;SDS011;38322;53.108;6.308;2023-05-10T11:30:09;10.40;;;6.40;;
52396;SDS011;38322;53.108;6.308;2023-05-10T11:32:38;8.07;;;6.05;;
52396;SDS011;38322;53.108;6.308;2023-05-10T11:35:08;7.72;;;5.25;;
52396;SDS011;38322;53.108;6.308;2023-05-10T11:37:35;6.97;;;5.80;;
52396;SDS011;38322;53.108;6.308;2023-05-10T11:40:01;12.10;;;5.72;;
52396;SDS011;38322;53.108;6.308;2023-05-10T11:42:28;8.77;;;6.68;;
52396;SDS011;38322;53.108;6.308;2023-05-10T11:44:54;8.13;;;5.43;;
52396;SDS011;38322;53.108;6.308;2023-05-10T11:47:20;5.93;;;5.18;;
52396;SDS011;38322;53.108;6.308;2023-05-10T11:49:46;6.60;;;5.75;;
52396;SDS011;38322;53.108;6.308;2023-05-10T11:52:12;5.90;;;4.97;;
52396;SDS011;38322;53.108;6.308;2023-05-10T11:54:46;6.57;;;5.72;;
52396;SDS011;38322;53.108;6.308;2023-05-10T11:57:17;5.68;;;5.10;;
52396;SDS011;38322;53.108;6.308;2023-05-10T11:59:45;5.63;;;5.07;;
52396;SDS011;38322;53.108;6.308;2023-05-10T12:02:12;8.20;;;6.18;;
52396;SDS011;38322;53.108;6.308;2023-05-10T12:04:39;5.68;;;4.18;;
52396;SDS011;38322;53.108;6.308;2023-05-10T12:07:05;7.22;;;4.60;;
52396;SDS011;38322;53.108;6.308;2023-05-10T12:09:31;5.32;;;4.68;;
52396;SDS011;38322;53.108;6.308;2023-05-10T12:11:57;7.38;;;5.05;;
52396;SDS011;38322;53.108;6.308;2023-05-10T12:14:23;7.75;;;5.10;;
52396;SDS011;38322;53.108;6.308;2023-05-10T12:16:49;8.55;;;4.65;;
52396;SDS011;38322;53.108;6.308;2023-05-10T12:19:19;6.70;;;5.25;;
52396;SDS011;38322;53.108;6.308;2023-05-10T12:21:46;6.35;;;5.75;;
52396;SDS011;38322;53.108;6.308;2023-05-10T12:24:12;8.35;;;5.65;;
52396;SDS011;38322;53.108;6.308;2023-05-10T12:26:41;8.10;;;6.28;;
52396;SDS011;38322;53.108;6.308;2023-05-10T12:29:14;8.13;;;6.15;;
52396;SDS011;38322;53.108;6.308;2023-05-10T12:31:55;8.77;;;6.03;;
52396;SDS011;38322;53.108;6.308;2023-05-10T12:34:29;12.98;;;7.00;;
52396;SDS011;38322;53.108;6.308;2023-05-10T12:36:57;10.70;;;6.25;;
52396;SDS011;38322;53.108;6.308;2023-05-10T12:39:23;6.43;;;5.68;;
52396;SDS011;38322;53.108;6.308;2023-05-10T12:41:50;9.05;;;5.85;;
52396;SDS011;38322;53.108;6.308;2023-05-10T12:44:16;8.10;;;5.93;;
52396;SDS011;38322;53.108;6.308;2023-05-10T12:46:42;8.35;;;6.15;;
52396;SDS011;38322;53.108;6.308;2023-05-10T12:49:08;7.85;;;6.45;;
52396;SDS011;38322;53.108;6.308;2023-05-10T12:51:34;7.45;;;6.75;;
52396;SDS011;38322;53.108;6.308;2023-05-10T12:53:59;9.10;;;6.10;;
52396;SDS011;38322;53.108;6.308;2023-05-10T12:56:27;7.60;;;6.43;;
52396;SDS011;38322;53.108;6.308;2023-05-10T12:58:52;12.25;;;7.07;;
52396;SDS011;38322;53.108;6.308;2023-05-10T13:01:18;8.40;;;5.38;;
52396;SDS011;38322;53.108;6.308;2023-05-10T13:03:44;6.78;;;6.00;;
52396;SDS011;38322;53.108;6.308;2023-05-10T13:06:10;10.73;;;6.63;;
52396;SDS011;38322;53.108;6.308;2023-05-10T13:08:36;10.25;;;6.25;;
52396;SDS011;38322;53.108;6.308;2023-05-10T13:11:01;6.53;;;5.82;;
52396;SDS011;38322;53.108;6.308;2023-05-10T13:13:28;9.30;;;6.13;;
52396;SDS011;38322;53.108;6.308;2023-05-10T13:15:54;7.80;;;5.13;;
52396;SDS011;38322;53.108;6.308;2023-05-10T13:18:19;7.65;;;4.72;;
52396;SDS011;38322;53.108;6.308;2023-05-10T13:20:45;10.95;;;6.75;;
52396;SDS011;38322;53.108;6.308;2023-05-10T13:23:11;8.98;;;6.68;;
52396;SDS011;38322;53.108;6.308;2023-05-10T13:25:37;7.18;;;5.75;;
52396;SDS011;38322;53.108;6.308;2023-05-10T13:28:03;9.32;;;6.28;;
52396;SDS011;38322;53.108;6.308;2023-05-10T13:30:28;8.20;;;5.95;;
52396;SDS011;38322;53.108;6.308;2023-05-10T13:32:54;8.98;;;6.45;;
52396;SDS011;38322;53.108;6.308;2023-05-10T13:35:20;6.90;;;6.20;;
52396;SDS011;38322;53.108;6.308;2023-05-10T13:37:46;8.00;;;5.25;;
52396;SDS011;38322;53.108;6.308;2023-05-10T13:40:11;6.75;;;5.47;;
52396;SDS011;38322;53.108;6.308;2023-05-10T13:42:38;5.75;;;4.65;;
52396;SDS011;38322;53.108;6.308;2023-05-10T13:45:04;8.63;;;5.80;;
52396;SDS011;38322;53.108;6.308;2023-05-10T13:47:31;6.53;;;5.88;;
52396;SDS011;38322;53.108;6.308;2023-05-10T13:49:57;6.10;;;4.55;;
52396;SDS011;38322;53.108;6.308;2023-05-10T13:52:23;5.15;;;4.65;;
52396;SDS011;38322;53.108;6.308;2023-05-10T13:54:49;6.43;;;4.90;;
52396;SDS011;38322;53.108;6.308;2023-05-10T13:57:17;5.65;;;4.30;;
52396;SDS011;38322;53.108;6.308;2023-05-10T13:59:43;6.32;;;4.93;;
52396;SDS011;38322;53.108;6.308;2023-05-10T14:02:09;6.97;;;6.30;;
52396;SDS011;38322;53.108;6.308;2023-05-10T14:04:35;8.02;;;4.82;;
52396;SDS011;38322;53.108;6.308;2023-05-10T14:07:01;6.30;;;5.32;;
52396;SDS011;38322;53.108;6.308;2023-05-10T14:09:27;7.72;;;5.88;;
52396;SDS011;38322;53.108;6.308;2023-05-10T14:11:53;7.30;;;5.65;;
52396;SDS011;38322;53.108;6.308;2023-05-10T14:14:18;9.32;;;5.35;;
52396;SDS011;38322;53.108;6.308;2023-05-10T14:16:46;6.80;;;4.72;;
52396;SDS011;38322;53.108;6.308;2023-05-10T14:19:12;7.97;;;6.35;;
52396;SDS011;38322;53.108;6.308;2023-05-10T14:21:38;10.75;;;5.93;;
52396;SDS011;38322;53.108;6.308;2023-05-10T14:24:04;7.13;;;6.38;;
52396;SDS011;38322;53.108;6.308;2023-05-10T14:26:32;7.95;;;5.38;;
52396;SDS011;38322;53.108;6.308;2023-05-10T14:29:00;9.07;;;5.75;;
52396;SDS011;38322;53.108;6.308;2023-05-10T14:31:26;8.13;;;6.40;;
52396;SDS011;38322;53.108;6.308;2023-05-10T14:33:52;9.80;;;7.30;;
52396;SDS011;38322;53.108;6.308;2023-05-10T14:36:18;10.63;;;6.78;;
52396;SDS011;38322;53.108;6.308;2023-05-10T14:38:44;9.73;;;8.43;;
52396;SDS011;38322;53.108;6.308;2023-05-10T14:41:09;8.75;;;6.90;;
52396;SDS011;38322;53.108;6.308;2023-05-10T14:43:39;9.82;;;6.90;;
52396;SDS011;38322;53.108;6.308;2023-05-10T14:46:05;8.57;;;6.38;;
52396;SDS011;38322;53.108;6.308;2023-05-10T14:48:31;10.85;;;6.38;;
52396;SDS011;38322;53.108;6.308;2023-05-10T14:50:57;9.82;;;7.40;;
52396;SDS011;38322;53.108;6.308;2023-05-10T14:53:22;7.32;;;6.63;;
52396;SDS011;38322;53.108;6.308;2023-05-10T14:55:48;8.73;;;6.40;;
52396;SDS011;38322;53.108;6.308;2023-05-10T14:58:14;8.20;;;5.85;;
52396;SDS011;38322;53.108;6.308;2023-05-10T15:00:40;10.55;;;6.00;;
52396;SDS011;38322;53.108;6.308;2023-05-10T15:03:07;6.45;;;5.72;;
52396;SDS011;38322;53.108;6.308;2023-05-10T15:05:33;7.80;;;5.75;;
52396;SDS011;38322;53.108;6.308;2023-05-10T15:07:59;9.43;;;5.18;;
52396;SDS011;38322;53.108;6.308;2023-05-10T15:10:25;7.93;;;6.00;;
52396;SDS011;38322;53.108;6.308;2023-05-10T15:12:51;7.57;;;5.63;;
52396;SDS011;38322;53.108;6.308;2023-05-10T15:15:16;7.10;;;6.32;;
52396;SDS011;38322;53.108;6.308;2023-05-10T15:17:52;10.88;;;6.22;;
52396;SDS011;38322;53.108;6.308;2023-05-10T15:20:18;7.53;;;5.53;;
52396;SDS011;38322;53.108;6.308;2023-05-10T15:22:44;11.25;;;6.15;;
52396;SDS011;38322;53.108;6.308;2023-05-10T15:25:10;7.20;;;4.82;;
52396;SDS011;38322;53.108;6.308;2023-05-10T15:27:35;8.13;;;6.05;;
52396;SDS011;38322;53.108;6.308;2023-05-10T15:30:01;6.80;;;5.75;;
52396;SDS011;38322;53.108;6.308;2023-05-10T15:32:27;8.38;;;5.82;;
52396;SDS011;38322;53.108;6.308;2023-05-10T15:34:54;6.68;;;5.22;;
52396;SDS011;38322;53.108;6.308;2023-05-10T15:37:20;7.28;;;5.97;;
52396;SDS011;38322;53.108;6.308;2023-05-10T15:39:48;8.20;;;5.50;;
52396;SDS011;38322;53.108;6.308;2023-05-10T15:42:13;7.97;;;5.07;;
52396;SDS011;38322;53.108;6.308;2023-05-10T15:44:39;5.85;;;4.38;;
52396;SDS011;38322;53.108;6.308;2023-05-10T15:47:05;6.38;;;4.97;;
52396;SDS011;38322;53.108;6.308;2023-05-10T15:49:31;6.05;;;4.78;;
52396;SDS011;38322;53.108;6.308;2023-05-10T15:51:57;10.13;;;5.70;;
52396;SDS011;38322;53.108;6.308;2023-05-10T15:54:23;7.22;;;5.43;;
52396;SDS011;38322;53.108;6.308;2023-05-10T15:56:49;6.35;;;5.75;;
52396;SDS011;38322;53.108;6.308;2023-05-10T15:59:15;7.90;;;5.47;;
52396;SDS011;38322;53.108;6.308;2023-05-10T16:01:41;8.23;;;4.28;;
52396;SDS011;38322;53.108;6.308;2023-05-10T16:04:06;5.95;;;4.50;;
52396;SDS011;38322;53.108;6.308;2023-05-10T16:06:33;5.18;;;4.43;;
52396;SDS011;38322;53.108;6.308;2023-05-10T16:08:59;6.45;;;4.70;;
52396;SDS011;38322;53.108;6.308;2023-05-10T16:11:25;4.03;;;3.67;;
52396;SDS011;38322;53.108;6.308;2023-05-10T16:13:51;2.55;;;2.30;;
52396;SDS011;38322;53.108;6.308;2023-05-10T16:16:17;3.40;;;2.80;;
52396;SDS011;38322;53.108;6.308;2023-05-10T16:18:42;5.68;;;2.85;;
52396;SDS011;38322;53.108;6.308;2023-05-10T16:21:08;2.95;;;2.35;;
52396;SDS011;38322;53.108;6.308;2023-05-10T16:23:34;2.67;;;2.38;;
52396;SDS011;38322;53.108;6.308;2023-05-10T16:26:01;2.58;;;1.92;;
52396;SDS011;38322;53.108;6.308;2023-05-10T16:28:27;3.90;;;3.22;;
52396;SDS011;38322;53.108;6.308;2023-05-10T16:30:53;3.47;;;2.47;;
52396;SDS011;38322;53.108;6.308;2023-05-10T16:33:18;3.40;;;2.97;;
52396;SDS011;38322;53.108;6.308;2023-05-10T16:35:44;4.80;;;2.90;;
52396;SDS011;38322;53.108;6.308;2023-05-10T16:38:10;3.15;;;2.88;;
52396;SDS011;38322;53.108;6.308;2023-05-10T16:40:36;6.43;;;4.05;;
52396;SDS011;38322;53.108;6.308;2023-05-10T16:43:02;4.65;;;4.25;;
52396;SDS011;38322;53.108;6.308;2023-05-10T16:45:29;5.88;;;3.80;;
52396;SDS011;38322;53.108;6.308;2023-05-10T16:47:56;6.60;;;4.60;;
52396;SDS011;38322;53.108;6.308;2023-05-10T16:50:22;4.07;;;3.70;;
52396;SDS011;38322;53.108;6.308;2023-05-10T16:52:48;6.53;;;4.07;;
52396;SDS011;38322;53.108;6.308;2023-05-10T16:55:13;7.32;;;4.07;;
52396;SDS011;38322;53.108;6.308;2023-05-10T16:57:39;3.92;;;3.63;;
52396;SDS011;38322;53.108;6.308;2023-05-10T17:00:05;6.10;;;3.90;;
52396;SDS011;38322;53.108;6.308;2023-05-10T17:02:32;5.65;;;4.97;;
52396;SDS011;38322;53.108;6.308;2023-05-10T17:04:58;4.95;;;4.20;;
52396;SDS011;38322;53.108;6.308;2023-05-10T17:07:24;4.68;;;4.25;;
52396;SDS011;38322;53.108;6.308;2023-05-10T17:09:49;5.88;;;5.28;;
52396;SDS011;38322;53.108;6.308;2023-05-10T17:12:15;5.57;;;4.95;;
52396;SDS011;38322;53.108;6.308;2023-05-10T17:14:41;6.40;;;5.55;;
52396;SDS011;38322;53.108;6.308;2023-05-10T17:17:07;7.55;;;4.38;;
52396;SDS011;38322;53.108;6.308;2023-05-10T17:19:33;5.95;;;4.78;;
52396;SDS011;38322;53.108;6.308;2023-05-10T17:21:59;5.47;;;4.97;;
52396;SDS011;38322;53.108;6.308;2023-05-10T17:24:25;6.63;;;5.75;;
52396;SDS011;38322;53.108;6.308;2023-05-10T17:26:53;6.25;;;5.00;;
52396;SDS011;38322;53.108;6.308;2023-05-10T17:29:20;8.38;;;5.85;;
52396;SDS011;38322;53.108;6.308;2023-05-10T17:31:46;6.80;;;5.75;;
52396;SDS011;38322;53.108;6.308;2023-05-10T17:34:12;6.45;;;5.35;;
52396;SDS011;38322;53.108;6.308;2023-05-10T17:36:38;6.50;;;5.63;;
52396;SDS011;38322;53.108;6.308;2023-05-10T17:39:04;7.65;;;5.15;;
52396;SDS011;38322;53.108;6.308;2023-05-10T17:41:30;6.38;;;5.78;;
52396;SDS011;38322;53.108;6.308;2023-05-10T17:43:56;5.93;;;5.38;;
52396;SDS011;38322;53.108;6.308;2023-05-10T17:46:21;6.10;;;5.50;;
52396;SDS011;38322;53.108;6.308;2023-05-10T17:48:47;6.65;;;6.05;;
52396;SDS011;38322;53.108;6.308;2023-05-10T17:51:13;7.88;;;6.82;;
52396;SDS011;38322;53.108;6.308;2023-05-10T17:53:39;8.32;;;6.43;;
52396;SDS011;38322;53.108;6.308;2023-05-10T17:56:05;6.57;;;5.97;;
52396;SDS011;38322;53.108;6.308;2023-05-10T17:58:31;6.22;;;5.00;;
52396;SDS011;38322;53.108;6.308;2023-05-10T18:00:57;6.78;;;5.80;;
52396;SDS011;38322;53.108;6.308;2023-05-10T18:03:23;7.43;;;5.45;;
52396;SDS011;38322;53.108;6.308;2023-05-10T18:05:49;6.88;;;5.78;;
52396;SDS011;38322;53.108;6.308;2023-05-10T18:08:15;8.27;;;6.40;;
52396;SDS011;38322;53.108;6.308;2023-05-10T18:10:46;7.93;;;6.50;;
52396;SDS011;38322;53.108;6.308;2023-05-10T18:13:12;8.18;;;5.82;;
52396;SDS011;38322;53.108;6.308;2023-05-10T18:15:38;6.63;;;4.70;;
52396;SDS011;38322;53.108;6.308;2023-05-10T18:18:04;7.13;;;5.75;;
52396;SDS011;38322;53.108;6.308;2023-05-10T18:20:30;6.88;;;5.80;;
52396;SDS011;38322;53.108;6.308;2023-05-10T18:22:56;6.75;;;6.10;;
52396;SDS011;38322;53.108;6.308;2023-05-10T18:25:23;6.30;;;5.57;;
52396;SDS011;38322;53.108;6.308;2023-05-10T18:27:49;5.80;;;5.13;;
52396;SDS011;38322;53.108;6.308;2023-05-10T18:30:16;5.28;;;4.78;;
52396;SDS011;38322;53.108;6.308;2023-05-10T18:32:42;5.95;;;4.72;;
52396;SDS011;38322;53.108;6.308;2023-05-10T18:35:09;6.20;;;5.65;;
52396;SDS011;38322;53.108;6.308;2023-05-10T18:37:36;6.00;;;5.50;;
52396;SDS011;38322;53.108;6.308;2023-05-10T18:40:03;5.65;;;5.03;;
52396;SDS011;38322;53.108;6.308;2023-05-10T18:42:33;6.35;;;5.50;;
52396;SDS011;38322;53.108;6.308;2023-05-10T18:44:59;5.05;;;4.55;;
52396;SDS011;38322;53.108;6.308;2023-05-10T18:47:25;5.72;;;5.00;;
52396;SDS011;38322;53.108;6.308;2023-05-10T18:49:51;7.05;;;5.05;;
52396;SDS011;38322;53.108;6.308;2023-05-10T18:52:17;7.20;;;5.22;;
52396;SDS011;38322;53.108;6.308;2023-05-10T18:54:43;6.47;;;5.35;;
52396;SDS011;38322;53.108;6.308;2023-05-10T18:57:10;5.32;;;4.78;;
52396;SDS011;38322;53.108;6.308;2023-05-10T18:59:36;6.28;;;5.65;;
52396;SDS011;38322;53.108;6.308;2023-05-10T19:02:02;8.30;;;4.82;;
52396;SDS011;38322;53.108;6.308;2023-05-10T19:04:28;8.65;;;5.47;;
52396;SDS011;38322;53.108;6.308;2023-05-10T19:06:54;6.25;;;5.13;;
52396;SDS011;38322;53.108;6.308;2023-05-10T19:09:20;6.93;;;5.30;;
52396;SDS011;38322;53.108;6.308;2023-05-10T19:11:46;6.35;;;5.00;;
52396;SDS011;38322;53.108;6.308;2023-05-10T19:14:12;5.07;;;4.38;;
52396;SDS011;38322;53.108;6.308;2023-05-10T19:16:38;8.40;;;4.93;;
52396;SDS011;38322;53.108;6.308;2023-05-10T19:19:04;5.47;;;4.93;;
52396;SDS011;38322;53.108;6.308;2023-05-10T19:21:30;5.97;;;5.38;;
52396;SDS011;38322;53.108;6.308;2023-05-10T19:23:57;6.00;;;5.40;;
52396;SDS011;38322;53.108;6.308;2023-05-10T19:26:23;6.22;;;5.63;;
52396;SDS011;38322;53.108;6.308;2023-05-10T19:28:50;6.18;;;4.45;;
52396;SDS011;38322;53.108;6.308;2023-05-10T19:31:16;5.18;;;4.32;;
52396;SDS011;38322;53.108;6.308;2023-05-10T19:33:42;4.60;;;4.15;;
52396;SDS011;38322;53.108;6.308;2023-05-10T19:36:08;7.10;;;5.53;;
52396;SDS011;38322;53.108;6.308;2023-05-10T19:38:34;7.03;;;4.18;;
52396;SDS011;38322;53.108;6.308;2023-05-10T19:41:00;7.70;;;4.25;;
52396;SDS011;38322;53.108;6.308;2023-05-10T19:43:27;5.28;;;4.75;;
52396;SDS011;38322;53.108;6.308;2023-05-10T19:45:54;6.32;;;5.00;;
52396;SDS011;38322;53.108;6.308;2023-05-10T19:48:23;8.15;;;4.38;;
52396;SDS011;38322;53.108;6.308;2023-05-10T19:50:49;4.75;;;4.00;;
52396;SDS011;38322;53.108;6.308;2023-05-10T19:53:16;4.65;;;4.22;;
52396;SDS011;38322;53.108;6.308;2023-05-10T19:55:41;5.40;;;4.90;;
52396;SDS011;38322;53.108;6.308;2023-05-10T19:58:07;4.93;;;4.28;;
52396;SDS011;38322;53.108;6.308;2023-05-10T20:00:33;5.18;;;4.57;;
